createdAt,value
2023-01-20T00:03:41.062Z,11.13
2023-01-20T00:08:45.858Z,8.13
2023-01-20T00:13:49.712Z,7.50
2023-01-20T00:18:53.325Z,7.10
2023-01-20T00:23:58.098Z,7.93
2023-01-20T00:29:01.397Z,8.45
2023-01-20T00:34:05.295Z,7.63
2023-01-20T00:39:10.035Z,9.35
2023-01-20T00:44:13.423Z,11.10
2023-01-20T00:49:16.788Z,11.15
2023-01-20T00:54:21.605Z,11.32
2023-01-20T00:59:25.024Z,11.00
2023-01-20T01:04:28.320Z,9.50
2023-01-20T01:09:33.577Z,9.27
2023-01-20T01:14:36.927Z,8.80
2023-01-20T01:19:40.327Z,9.20
2023-01-20T01:24:46.289Z,9.50
2023-01-20T01:29:49.585Z,9.00
2023-01-20T01:34:52.885Z,8.55
2023-01-20T01:39:57.786Z,8.73
2023-01-20T01:45:21.755Z,8.02
2023-01-20T01:50:28.673Z,8.55
2023-01-20T01:55:37.039Z,9.10
2023-01-20T02:00:41.094Z,9.00
2023-01-20T02:05:46.060Z,8.90
2023-01-20T02:10:50.790Z,8.30
2023-01-20T02:16:04.427Z,9.32
2023-01-20T02:21:45.586Z,9.07
2023-01-20T02:27:04.714Z,9.30
2023-01-20T02:32:18.475Z,9.70
2023-01-20T02:37:26.690Z,9.40
2023-01-20T02:42:38.029Z,10.00
2023-01-20T02:47:50.997Z,9.90
2023-01-20T02:52:59.662Z,9.57
2023-01-20T02:58:07.306Z,9.52
2023-01-20T03:03:16.435Z,9.15
2023-01-20T03:08:20.427Z,9.73
2023-01-20T03:13:27.257Z,9.20
2023-01-20T03:18:33.858Z,10.17
2023-01-20T03:23:41.055Z,10.07
2023-01-20T03:28:45.451Z,9.98
2023-01-20T03:33:52.535Z,8.93
2023-01-20T03:38:57.213Z,9.53
2023-01-20T03:44:12.807Z,9.45
2023-01-20T03:49:26.414Z,9.68
2023-01-20T03:54:35.584Z,9.02
2023-01-20T03:59:41.468Z,11.10
2023-01-20T04:04:48.752Z,10.25
2023-01-20T04:09:55.045Z,9.40
2023-01-20T04:14:58.455Z,8.63
2023-01-20T04:20:08.488Z,8.32
2023-01-20T04:25:16.028Z,8.25
2023-01-20T04:30:20.274Z,8.00
2023-01-20T04:35:25.348Z,8.10
2023-01-20T04:40:28.698Z,7.67
2023-01-20T04:45:32.042Z,7.63
2023-01-20T04:50:39.935Z,7.10
2023-01-20T04:55:43.229Z,7.63
2023-01-20T05:00:46.553Z,7.70
2023-01-20T05:05:55.425Z,7.53
2023-01-20T05:10:58.810Z,8.40
2023-01-20T05:16:03.215Z,8.57
2023-01-20T05:21:09.031Z,8.65
2023-01-20T05:26:12.689Z,8.15
2023-01-20T05:31:16.377Z,8.40
2023-01-20T05:36:21.259Z,8.90
2023-01-20T05:41:24.658Z,8.52
2023-01-20T05:46:28.160Z,9.20
2023-01-20T05:51:33.605Z,8.75
2023-01-20T05:56:36.985Z,9.43
2023-01-20T06:01:40.722Z,8.93
2023-01-20T06:06:45.525Z,9.10
2023-01-20T06:11:48.826Z,9.55
2023-01-20T06:16:52.074Z,9.15
2023-01-20T06:21:56.727Z,9.13
2023-01-20T06:26:59.993Z,9.70
2023-01-20T06:32:03.236Z,10.00
2023-01-20T06:37:07.876Z,10.10
2023-01-20T06:42:11.742Z,9.40
2023-01-20T06:47:15.008Z,10.50
2023-01-20T06:52:19.671Z,12.77
2023-01-20T06:57:22.962Z,13.80
2023-01-20T07:02:26.464Z,13.25
2023-01-20T07:07:31.159Z,12.70
2023-01-20T07:12:34.411Z,10.13
2023-01-20T07:17:37.690Z,10.23
2023-01-20T07:22:42.331Z,10.43
2023-01-20T07:27:45.595Z,10.10
2023-01-20T07:32:48.837Z,10.10
2023-01-20T07:37:53.483Z,9.70
2023-01-20T07:42:56.858Z,9.95
2023-01-20T07:48:00.145Z,10.10
2023-01-20T07:53:05.555Z,11.13
2023-01-20T07:58:08.979Z,11.50
2023-01-20T08:03:12.233Z,12.00
2023-01-20T08:08:16.948Z,12.85
2023-01-20T08:13:20.235Z,13.17
2023-01-20T08:18:23.619Z,13.18
2023-01-20T08:23:28.507Z,13.18
2023-01-20T08:28:34.100Z,13.32
2023-01-20T08:33:37.573Z,13.10
2023-01-20T08:38:45.733Z,13.95
2023-01-20T08:43:49.532Z,14.73
2023-01-20T08:48:54.257Z,14.20
2023-01-20T08:53:59.129Z,14.30
2023-01-20T08:59:02.791Z,13.68
2023-01-20T09:04:07.632Z,13.45
2023-01-20T09:09:13.271Z,14.55
2023-01-20T09:14:16.549Z,14.25
2023-01-20T09:19:20.165Z,16.77
2023-01-20T09:24:24.898Z,16.60
2023-01-20T09:29:28.221Z,27.47
2023-01-20T09:34:32.766Z,12.90
2023-01-20T09:39:55.571Z,15.20
2023-01-20T09:45:25.044Z,12.82
2023-01-20T09:50:56.575Z,12.47
2023-01-20T09:56:06.472Z,10.10
2023-01-20T10:01:18.218Z,8.73
2023-01-20T10:06:26.498Z,9.90
2023-01-20T10:11:34.689Z,12.35
2023-01-20T10:16:45.435Z,11.35
2023-01-20T10:21:54.698Z,9.50
2023-01-20T10:27:02.837Z,8.48
2023-01-20T10:32:14.560Z,9.77
2023-01-20T10:37:18.070Z,11.68
2023-01-20T10:42:24.281Z,10.20
2023-01-20T10:47:35.222Z,10.85
2023-01-20T10:53:02.665Z,9.43
2023-01-20T10:58:17.950Z,11.52
2023-01-20T11:03:23.677Z,11.17
2023-01-20T11:08:29.755Z,10.60
2023-01-20T11:13:34.397Z,10.52
2023-01-20T11:18:37.803Z,11.47
2023-01-20T11:23:43.374Z,12.60
2023-01-20T11:28:52.859Z,11.77
2023-01-20T11:33:58.454Z,14.17
2023-01-20T11:39:01.958Z,10.57
2023-01-20T11:44:08.260Z,11.30
2023-01-20T11:49:17.808Z,11.03
2023-01-20T11:54:23.787Z,11.07
2023-01-20T11:59:31.847Z,11.35
2023-01-20T12:04:50.871Z,11.40
2023-01-20T12:10:04.069Z,11.00
2023-01-20T12:15:16.237Z,11.50
2023-01-20T12:20:27.626Z,11.40
2023-01-20T12:25:33.456Z,11.53
2023-01-20T12:30:47.538Z,11.85
2023-01-20T12:36:17.810Z,13.10
2023-01-20T12:41:35.872Z,15.15
2023-01-20T12:46:45.668Z,15.55
2023-01-20T12:52:04.416Z,14.05
2023-01-20T12:57:18.183Z,14.40
2023-01-20T13:02:53.570Z,14.27
2023-01-20T13:08:08.363Z,14.15
2023-01-20T13:13:21.969Z,15.15
2023-01-20T13:18:34.417Z,14.18
2023-01-20T13:23:38.680Z,15.20
2023-01-20T13:28:52.500Z,16.45
2023-01-20T13:34:33.729Z,15.50
2023-01-20T13:39:46.405Z,14.27
2023-01-20T13:45:20.204Z,15.15
2023-01-20T13:50:27.717Z,15.93
2023-01-20T13:55:31.649Z,18.05
2023-01-20T14:00:34.935Z,15.40
2023-01-20T14:05:40.670Z,13.82
2023-01-20T14:10:44.229Z,14.50
2023-01-20T14:15:51.284Z,14.07
2023-01-20T14:21:18.537Z,12.88
2023-01-20T14:26:23.754Z,12.25
2023-01-20T14:31:40.691Z,13.52
2023-01-20T14:36:45.783Z,11.73
2023-01-20T14:41:50.807Z,12.48
2023-01-20T14:46:56.713Z,11.48
2023-01-20T14:52:02.236Z,12.30
2023-01-20T14:57:20.588Z,10.67
2023-01-20T15:02:28.890Z,10.50
2023-01-20T15:07:35.007Z,12.50
2023-01-20T15:12:42.756Z,11.02
2023-01-20T15:18:06.084Z,11.03
2023-01-20T15:23:17.205Z,10.98
2023-01-20T15:28:30.185Z,11.40
2023-01-20T15:33:33.472Z,10.70
2023-01-20T15:38:38.118Z,12.27
2023-01-20T15:43:42.570Z,11.60
2023-01-20T15:48:46.650Z,10.32
2023-01-20T15:53:51.369Z,10.87
2023-01-20T15:58:54.761Z,11.30
2023-01-20T16:03:58.742Z,11.37
2023-01-20T16:09:05.060Z,12.77
2023-01-20T16:14:08.309Z,11.50
2023-01-20T16:19:13.578Z,10.68
2023-01-20T16:24:18.380Z,9.27
2023-01-20T16:29:21.814Z,7.87
2023-01-20T16:34:25.256Z,8.45
2023-01-20T16:39:30.344Z,8.90
2023-01-20T16:44:33.759Z,11.65
2023-01-20T16:49:37.209Z,13.30
2023-01-20T16:54:42.113Z,11.43
2023-01-20T16:59:45.616Z,7.28
2023-01-20T17:04:48.992Z,7.82
2023-01-20T17:09:53.830Z,6.90
2023-01-20T17:14:57.187Z,9.20
2023-01-20T17:20:01.135Z,7.00
2023-01-20T17:25:06.750Z,8.18
2023-01-20T17:30:11.301Z,7.72
2023-01-20T17:35:14.617Z,8.98
2023-01-20T17:40:19.610Z,8.67
2023-01-20T17:45:23.362Z,8.30
2023-01-20T17:50:29.459Z,9.80
2023-01-20T17:55:34.394Z,9.88
2023-01-20T18:00:38.027Z,9.25
2023-01-20T18:05:41.622Z,9.75
2023-01-20T18:10:47.479Z,8.95
2023-01-20T18:15:51.063Z,10.50
2023-01-20T18:20:54.575Z,10.80
2023-01-20T18:25:59.486Z,10.00
2023-01-20T18:31:08.598Z,10.18
2023-01-20T18:36:14.873Z,10.98
2023-01-20T18:41:20.175Z,10.75
2023-01-20T18:46:23.598Z,11.80
2023-01-20T18:51:29.532Z,11.03
2023-01-20T18:56:35.034Z,10.57
2023-01-20T19:01:40.196Z,11.25
2023-01-20T19:06:45.514Z,11.60
2023-01-20T19:11:50.307Z,11.15
2023-01-20T19:16:53.648Z,10.95
2023-01-20T19:21:56.998Z,11.35
2023-01-20T19:27:03.140Z,13.83
2023-01-20T19:32:06.565Z,11.63
2023-01-20T19:37:09.916Z,11.90
2023-01-20T19:42:14.592Z,12.50
2023-01-20T19:47:17.904Z,11.95
2023-01-20T19:52:21.240Z,12.75
2023-01-20T19:57:27.199Z,13.70
2023-01-20T20:02:30.643Z,16.20
2023-01-20T20:07:36.085Z,16.50
2023-01-20T20:12:41.156Z,14.70
2023-01-20T20:17:44.435Z,13.70
2023-01-20T20:22:47.765Z,14.50
2023-01-20T20:27:52.910Z,13.63
2023-01-20T20:32:56.685Z,13.63
2023-01-20T20:38:00.526Z,13.90
2023-01-20T20:43:05.365Z,14.17
2023-01-20T20:48:10.060Z,14.70
2023-01-20T20:53:13.840Z,14.70
2023-01-20T20:58:18.516Z,14.33
2023-01-20T21:03:21.790Z,14.75
2023-01-20T21:08:25.892Z,14.07
2023-01-20T21:13:31.242Z,26.67
2023-01-20T21:18:34.906Z,13.83
2023-01-20T21:23:38.451Z,14.48
2023-01-20T21:28:44.528Z,13.98
2023-01-20T21:33:49.293Z,14.60
2023-01-20T21:38:53.060Z,14.47
2023-01-20T21:44:15.284Z,14.57
2023-01-20T21:49:36.204Z,14.98
2023-01-20T21:54:41.363Z,14.65
2023-01-20T21:59:47.109Z,15.27
2023-01-20T22:04:51.030Z,14.40
2023-01-20T22:09:57.849Z,28.73
2023-01-20T22:15:03.279Z,15.77
2023-01-20T22:20:07.647Z,14.55
2023-01-20T22:25:11.358Z,14.52
2023-01-20T22:30:17.050Z,15.18
2023-01-20T22:35:20.886Z,15.43
2023-01-20T22:40:24.329Z,14.13
2023-01-20T22:45:29.768Z,13.50
2023-01-20T22:50:34.789Z,12.60
2023-01-20T22:55:48.871Z,14.15
2023-01-20T23:01:01.403Z,12.15
2023-01-20T23:06:04.957Z,13.45
2023-01-20T23:11:10.418Z,12.63
2023-01-20T23:16:17.685Z,12.50
2023-01-20T23:21:21.938Z,13.03
2023-01-20T23:26:27.010Z,12.75
2023-01-20T23:31:33.601Z,13.90
2023-01-20T23:36:37.051Z,14.73
2023-01-20T23:41:40.392Z,13.57
2023-01-20T23:46:45.187Z,14.95
2023-01-20T23:51:48.650Z,15.30
2023-01-20T23:56:52.038Z,16.63
